createdAt,value
2023-03-27T00:01:25.404Z,6.30
2023-03-27T00:03:28.739Z,6.40
2023-03-27T00:05:31.334Z,6.30
2023-03-27T00:07:35.847Z,6.30
2023-03-27T00:09:39.173Z,6.30
2023-03-27T00:11:41.207Z,6.20
2023-03-27T00:13:50.581Z,6.30
2023-03-27T00:15:55.040Z,6.30
2023-03-27T00:17:58.768Z,6.30
2023-03-27T00:20:00.599Z,6.30
2023-03-27T00:22:02.481Z,6.30
2023-03-27T00:24:04.229Z,6.30
2023-03-27T00:26:06.436Z,6.30
2023-03-27T00:28:08.485Z,6.30
2023-03-27T00:30:10.949Z,6.30
2023-03-27T00:32:12.719Z,6.30
2023-03-27T00:34:14.540Z,6.30
2023-03-27T00:36:16.315Z,6.20
2023-03-27T00:38:18.721Z,6.20
2023-03-27T00:40:20.769Z,6.20
2023-03-27T00:42:24.054Z,6.20
2023-03-27T00:44:31.237Z,6.20
2023-03-27T00:46:36.146Z,6.20
2023-03-27T00:48:38.220Z,6.20
2023-03-27T00:50:42.986Z,6.20
2023-03-27T00:52:49.138Z,6.20
2023-03-27T00:54:50.934Z,6.20
2023-03-27T00:56:55.648Z,6.30
2023-03-27T00:59:02.063Z,6.30
2023-03-27T01:01:03.878Z,6.30
2023-03-27T01:03:07.804Z,6.30
2023-03-27T01:05:11.484Z,6.30
2023-03-27T01:07:14.251Z,6.30
2023-03-27T01:09:20.807Z,6.30
2023-03-27T01:11:43.430Z,6.30
2023-03-27T01:14:13.599Z,6.30
2023-03-27T01:16:31.011Z,6.30
2023-03-27T01:18:56.082Z,6.30
2023-03-27T01:21:19.414Z,6.30
2023-03-27T01:23:59.412Z,6.30
2023-03-27T01:26:36.958Z,6.40
2023-03-27T01:29:03.928Z,6.40
2023-03-27T01:31:15.298Z,6.40
2023-03-27T01:33:38.934Z,6.40
2023-03-27T01:36:00.492Z,6.40
2023-03-27T01:38:20.644Z,6.40
2023-03-27T01:40:36.614Z,6.40
2023-03-27T01:42:49.112Z,6.40
2023-03-27T01:45:08.791Z,6.40
2023-03-27T01:47:19.827Z,6.40
2023-03-27T01:49:27.956Z,6.40
2023-03-27T01:51:43.991Z,6.40
2023-03-27T01:54:07.826Z,6.40
2023-03-27T01:56:18.536Z,6.30
2023-03-27T01:58:24.710Z,6.30
2023-03-27T02:00:28.429Z,6.30
2023-03-27T02:03:22.862Z,6.30
2023-03-27T02:05:46.896Z,6.30
2023-03-27T02:07:59.672Z,6.20
2023-03-27T02:10:06.659Z,6.20
2023-03-27T02:12:13.299Z,6.10
2023-03-27T02:14:23.250Z,6.10
2023-03-27T02:16:34.200Z,6.00
2023-03-27T02:18:40.719Z,6.00
2023-03-27T02:20:42.533Z,5.90
2023-03-27T02:22:48.783Z,5.90
2023-03-27T02:24:54.897Z,5.90
2023-03-27T02:27:12.923Z,5.90
2023-03-27T02:29:35.764Z,5.90
2023-03-27T02:31:46.809Z,5.90
2023-03-27T02:33:57.738Z,5.90
2023-03-27T02:36:09.379Z,5.80
2023-03-27T02:38:54.765Z,5.80
2023-03-27T02:41:08.928Z,5.80
2023-03-27T02:43:21.995Z,5.80
2023-03-27T02:45:43.283Z,5.80
2023-03-27T02:47:58.938Z,5.80
2023-03-27T02:50:05.787Z,5.80
2023-03-27T02:52:16.935Z,5.80
2023-03-27T02:54:32.408Z,5.90
2023-03-27T02:56:38.621Z,5.70
2023-03-27T02:59:11.084Z,5.70
2023-03-27T03:01:16.621Z,5.70
2023-03-27T03:03:32.052Z,5.70
2023-03-27T03:05:37.234Z,5.70
2023-03-27T03:07:40.189Z,5.70
2023-03-27T03:09:44.559Z,5.70
2023-03-27T03:11:51.404Z,5.70
2023-03-27T03:13:53.188Z,5.70
2023-03-27T03:15:55.028Z,5.60
2023-03-27T03:17:56.874Z,5.60
2023-03-27T03:19:58.665Z,5.60
2023-03-27T03:22:01.674Z,5.50
2023-03-27T03:24:03.678Z,5.60
2023-03-27T03:26:06.627Z,5.60
2023-03-27T03:28:09.868Z,5.60
2023-03-27T03:30:16.939Z,5.60
2023-03-27T03:32:19.312Z,5.60
2023-03-27T03:34:22.588Z,5.50
2023-03-27T03:36:24.404Z,5.60
2023-03-27T03:38:29.990Z,5.60
2023-03-27T03:40:40.036Z,5.60
2023-03-27T03:42:48.599Z,5.50
2023-03-27T03:44:50.762Z,5.50
2023-03-27T03:46:52.599Z,5.40
2023-03-27T03:48:54.550Z,5.40
2023-03-27T03:50:57.088Z,5.40
2023-03-27T03:52:59.356Z,5.40
2023-03-27T03:55:01.223Z,5.40
2023-03-27T03:57:03.460Z,5.40
2023-03-27T03:59:05.429Z,5.40
2023-03-27T04:01:09.085Z,5.40
2023-03-27T04:03:10.984Z,5.30
2023-03-27T04:05:13.069Z,5.30
2023-03-27T04:07:17.775Z,5.30
2023-03-27T04:09:19.750Z,5.30
2023-03-27T04:11:21.688Z,5.30
2023-03-27T04:13:23.956Z,5.20
2023-03-27T04:15:27.478Z,5.10
2023-03-27T04:17:29.452Z,5.10
2023-03-27T04:19:31.378Z,5.10
2023-03-27T04:21:33.209Z,5.00
2023-03-27T04:23:34.942Z,5.00
2023-03-27T04:25:36.791Z,5.00
2023-03-27T04:27:39.131Z,5.00
2023-03-27T04:29:43.527Z,5.00
2023-03-27T04:31:46.630Z,4.90
2023-03-27T04:33:52.174Z,4.80
2023-03-27T04:36:06.105Z,4.90
2023-03-27T04:38:09.548Z,4.80
2023-03-27T04:40:14.060Z,4.80
2023-03-27T04:42:16.018Z,4.80
2023-03-27T04:44:18.375Z,4.80
2023-03-27T04:46:20.187Z,4.80
2023-03-27T04:48:22.114Z,4.90
2023-03-27T04:50:24.694Z,4.80
2023-03-27T04:52:26.618Z,4.90
2023-03-27T04:54:31.715Z,4.90
2023-03-27T04:56:35.036Z,4.90
2023-03-27T04:58:37.495Z,4.90
2023-03-27T05:00:39.856Z,4.90
2023-03-27T05:02:41.848Z,4.90
2023-03-27T05:04:43.654Z,4.90
2023-03-27T05:06:45.465Z,4.90
2023-03-27T05:08:47.302Z,5.00
2023-03-27T05:10:49.200Z,5.00
2023-03-27T05:12:53.075Z,5.00
2023-03-27T05:14:54.891Z,5.00
2023-03-27T05:16:57.807Z,5.10
2023-03-27T05:18:59.537Z,5.10
2023-03-27T05:21:01.282Z,5.00
2023-03-27T05:23:03.265Z,5.00
2023-03-27T05:25:05.493Z,5.00
2023-03-27T05:27:07.292Z,5.00
2023-03-27T05:29:09.304Z,5.00
2023-03-27T05:31:12.469Z,5.00
2023-03-27T05:33:14.458Z,5.00
2023-03-27T05:35:18.180Z,5.00
2023-03-27T05:37:20.612Z,5.00
2023-03-27T05:39:25.393Z,5.00
2023-03-27T05:41:27.173Z,4.80
2023-03-27T05:43:28.923Z,4.90
2023-03-27T05:45:31.116Z,4.80
2023-03-27T05:47:32.901Z,4.80
2023-03-27T05:49:34.729Z,4.80
2023-03-27T05:51:36.515Z,4.70
2023-03-27T05:53:39.402Z,4.70
2023-03-27T05:55:41.730Z,4.70
2023-03-27T05:57:43.481Z,4.80
2023-03-27T05:59:45.406Z,4.80
2023-03-27T06:01:49.013Z,4.80
2023-03-27T06:03:56.058Z,4.80
2023-03-27T06:06:01.414Z,4.80
2023-03-27T06:08:03.597Z,4.70
2023-03-27T06:10:07.728Z,4.70
2023-03-27T06:12:16.281Z,4.60
2023-03-27T06:14:18.034Z,4.60
2023-03-27T06:16:22.947Z,4.60
2023-03-27T06:18:24.958Z,4.60
2023-03-27T06:20:27.688Z,4.50
2023-03-27T06:22:29.571Z,4.50
2023-03-27T06:24:31.501Z,4.50
2023-03-27T06:26:33.986Z,4.50
2023-03-27T06:28:35.777Z,4.50
2023-03-27T06:30:40.658Z,4.30
2023-03-27T06:32:45.972Z,4.50
2023-03-27T06:34:50.080Z,4.50
2023-03-27T06:36:51.939Z,4.50
2023-03-27T06:38:54.476Z,4.40
2023-03-27T06:40:56.378Z,4.30
2023-03-27T06:43:00.873Z,4.30
2023-03-27T06:45:04.725Z,4.20
2023-03-27T06:47:06.662Z,4.20
2023-03-27T06:49:08.493Z,4.20
2023-03-27T06:51:10.365Z,4.20
2023-03-27T06:53:25.921Z,4.20
2023-03-27T06:55:32.392Z,4.30
2023-03-27T06:57:34.279Z,4.20
2023-03-27T06:59:36.245Z,4.20
2023-03-27T07:01:38.230Z,4.20
2023-03-27T07:03:40.055Z,4.20
2023-03-27T07:05:42.657Z,4.20
2023-03-27T07:07:44.422Z,4.20
2023-03-27T07:09:46.960Z,4.10
2023-03-27T07:11:48.698Z,4.00
2023-03-27T07:13:50.452Z,4.00
2023-03-27T07:15:52.380Z,4.00
2023-03-27T07:17:59.366Z,3.90
2023-03-27T07:20:01.474Z,4.00
2023-03-27T07:22:03.524Z,4.10
2023-03-27T07:24:05.487Z,4.00
2023-03-27T07:26:07.520Z,4.00
2023-03-27T07:28:13.924Z,4.00
2023-03-27T07:30:16.217Z,3.90
2023-03-27T07:32:29.675Z,3.90
2023-03-27T07:34:38.591Z,3.90
2023-03-27T07:36:40.417Z,3.80
2023-03-27T07:38:42.361Z,3.80
2023-03-27T07:40:46.513Z,3.80
2023-03-27T07:42:50.272Z,3.80
2023-03-27T07:44:52.054Z,3.80
2023-03-27T07:46:54.507Z,3.80
2023-03-27T07:48:57.558Z,3.80
2023-03-27T07:53:06.554Z,3.70
2023-03-27T07:55:08.830Z,3.70
2023-03-27T07:57:10.715Z,3.60
2023-03-27T07:59:12.456Z,3.60
2023-03-27T08:01:14.544Z,3.50
2023-03-27T08:03:18.566Z,3.50
2023-03-27T08:05:21.019Z,3.50
2023-03-27T08:07:25.078Z,3.50
2023-03-27T08:09:27.159Z,3.50
2023-03-27T08:11:31.000Z,3.50
2023-03-27T08:13:33.123Z,3.40
2023-03-27T08:15:34.878Z,3.40
2023-03-27T08:17:36.935Z,3.40
2023-03-27T08:19:38.817Z,3.30
2023-03-27T08:21:40.603Z,3.30
2023-03-27T08:23:42.761Z,3.30
2023-03-27T08:25:50.253Z,3.30
2023-03-27T08:27:52.982Z,3.30
2023-03-27T08:29:54.796Z,3.40
2023-03-27T08:31:56.550Z,3.40
2023-03-27T08:33:58.358Z,3.40
2023-03-27T08:36:00.285Z,3.40
2023-03-27T08:38:03.353Z,3.40
2023-03-27T08:40:13.177Z,3.50
2023-03-27T08:42:20.097Z,3.60
2023-03-27T08:44:24.654Z,3.80
2023-03-27T08:46:31.584Z,3.70
2023-03-27T08:49:02.236Z,3.70
2023-03-27T08:51:27.892Z,3.70
2023-03-27T08:53:36.391Z,3.80
2023-03-27T08:55:43.629Z,3.80
2023-03-27T08:57:46.596Z,3.80
2023-03-27T08:59:50.088Z,3.90
2023-03-27T09:02:18.911Z,3.90
2023-03-27T09:04:27.172Z,3.90
2023-03-27T09:06:39.672Z,3.90
2023-03-27T09:08:57.057Z,3.90
2023-03-27T09:11:15.678Z,3.90
2023-03-27T09:13:31.141Z,3.90
2023-03-27T09:15:37.373Z,3.80
2023-03-27T09:17:41.622Z,3.70
2023-03-27T09:20:06.381Z,3.70
2023-03-27T09:22:16.985Z,3.70
2023-03-27T09:24:44.672Z,3.60
2023-03-27T09:26:52.737Z,3.70
2023-03-27T09:29:19.920Z,3.60
2023-03-27T09:31:35.419Z,3.50
2023-03-27T09:33:41.469Z,3.50
2023-03-27T09:35:43.767Z,3.50
2023-03-27T09:37:46.991Z,3.50
2023-03-27T09:39:52.536Z,3.60
2023-03-27T09:42:06.782Z,3.60
2023-03-27T09:44:25.631Z,3.70
2023-03-27T09:46:28.539Z,3.70
2023-03-27T09:48:41.321Z,3.70
2023-03-27T09:50:47.319Z,3.70
2023-03-27T09:52:49.399Z,3.70
2023-03-27T09:54:54.035Z,3.60
2023-03-27T09:57:13.316Z,3.60
2023-03-27T09:59:26.230Z,3.80
2023-03-27T10:01:30.287Z,3.70
2023-03-27T10:03:39.143Z,3.70
2023-03-27T10:05:41.826Z,3.80
2023-03-27T10:07:43.523Z,3.80
2023-03-27T10:10:04.018Z,3.80
2023-03-27T10:12:06.301Z,3.90
2023-03-27T10:14:16.212Z,3.90
2023-03-27T10:16:20.975Z,4.00
2023-03-27T10:18:28.155Z,4.00
2023-03-27T10:20:30.415Z,3.90
2023-03-27T10:22:36.102Z,4.00
2023-03-27T10:24:46.040Z,4.10
2023-03-27T10:26:52.398Z,4.10
2023-03-27T10:29:01.580Z,4.20
2023-03-27T10:31:04.855Z,4.20
2023-03-27T10:33:07.605Z,4.30
2023-03-27T10:35:36.953Z,4.30
2023-03-27T10:37:41.433Z,4.30
2023-03-27T10:39:53.206Z,4.30
2023-03-27T10:41:55.498Z,4.40
2023-03-27T10:43:57.789Z,4.40
2023-03-27T10:46:05.021Z,4.50
2023-03-27T10:48:07.818Z,4.50
2023-03-27T10:50:30.364Z,4.50
2023-03-27T10:52:37.111Z,4.50
2023-03-27T10:55:00.621Z,4.60
2023-03-27T10:57:18.740Z,4.60
2023-03-27T10:59:41.543Z,4.60
2023-03-27T11:01:53.729Z,4.60
2023-03-27T11:04:04.591Z,4.70
2023-03-27T11:06:12.788Z,4.70
2023-03-27T11:08:32.031Z,4.80
2023-03-27T11:10:41.212Z,4.90
2023-03-27T11:12:58.655Z,4.90
2023-03-27T11:15:11.897Z,5.00
2023-03-27T11:17:20.162Z,5.00
2023-03-27T11:19:46.794Z,5.00
2023-03-27T11:21:59.905Z,5.00
2023-03-27T11:24:05.564Z,5.10
2023-03-27T11:26:11.570Z,5.10
2023-03-27T11:28:24.749Z,5.20
2023-03-27T11:30:44.357Z,5.20
2023-03-27T11:33:05.146Z,5.30
2023-03-27T11:35:23.135Z,5.30
2023-03-27T11:37:36.576Z,5.30
2023-03-27T11:39:48.360Z,5.20
2023-03-27T11:42:21.320Z,5.20
2023-03-27T11:44:24.870Z,5.20
2023-03-27T11:46:42.753Z,5.20
2023-03-27T11:48:56.840Z,5.20
2023-03-27T11:51:07.179Z,5.30
2023-03-27T11:53:48.018Z,5.30
2023-03-27T11:55:58.555Z,5.30
2023-03-27T11:58:23.687Z,5.30
2023-03-27T12:00:52.351Z,5.40
2023-03-27T12:03:29.349Z,5.50
2023-03-27T12:06:00.046Z,5.40
2023-03-27T12:08:09.173Z,5.40
2023-03-27T12:10:29.398Z,5.50
2023-03-27T12:12:56.380Z,5.50
2023-03-27T12:15:27.397Z,5.70
2023-03-27T12:17:50.298Z,5.80
2023-03-27T12:20:16.105Z,5.90
2023-03-27T12:22:30.060Z,5.70
2023-03-27T12:24:57.211Z,5.70
2023-03-27T12:27:29.212Z,5.50
2023-03-27T12:29:36.633Z,5.40
2023-03-27T12:32:16.264Z,5.30
2023-03-27T12:34:50.263Z,5.30
2023-03-27T12:36:53.607Z,5.30
2023-03-27T12:38:56.273Z,5.40
2023-03-27T12:41:03.558Z,5.50
2023-03-27T12:43:20.783Z,5.60
2023-03-27T12:45:26.908Z,5.70
2023-03-27T12:47:29.935Z,5.80
2023-03-27T12:49:47.529Z,5.80
2023-03-27T12:51:53.692Z,5.90
2023-03-27T12:53:56.501Z,5.80
2023-03-27T12:56:12.326Z,5.80
2023-03-27T12:58:33.643Z,5.80
2023-03-27T13:00:35.911Z,5.80
2023-03-27T13:03:06.600Z,5.80
2023-03-27T13:05:27.499Z,5.90
2023-03-27T13:07:43.909Z,6.00
2023-03-27T13:10:13.179Z,6.00
2023-03-27T13:12:45.286Z,6.00
2023-03-27T13:15:13.402Z,5.90
2023-03-27T13:17:44.195Z,5.90
2023-03-27T13:19:58.185Z,5.90
2023-03-27T13:22:03.705Z,5.90
2023-03-27T13:24:18.167Z,5.90
2023-03-27T13:26:46.793Z,5.80
2023-03-27T13:28:52.808Z,5.80
2023-03-27T13:30:57.254Z,5.80
2023-03-27T13:33:17.297Z,5.80
2023-03-27T13:35:21.881Z,5.70
2023-03-27T13:37:36.610Z,5.60
2023-03-27T13:39:59.242Z,5.40
2023-03-27T13:42:25.243Z,5.40
2023-03-27T13:44:28.174Z,5.30
2023-03-27T13:46:31.962Z,5.30
2023-03-27T13:48:48.509Z,5.40
2023-03-27T13:50:53.317Z,5.50
2023-03-27T13:53:20.862Z,5.60
2023-03-27T13:55:36.711Z,5.60
2023-03-27T13:57:53.475Z,5.60
2023-03-27T14:00:08.401Z,5.70
2023-03-27T14:02:43.013Z,5.80
2023-03-27T14:05:04.565Z,5.90
2023-03-27T14:07:16.287Z,5.90
2023-03-27T14:09:45.446Z,6.10
2023-03-27T14:12:24.242Z,6.40
2023-03-27T14:15:03.810Z,6.60
2023-03-27T14:17:24.372Z,7.00
2023-03-27T14:20:08.237Z,7.20
2023-03-27T14:22:23.626Z,7.50
2023-03-27T14:24:38.307Z,7.80
2023-03-27T14:26:45.378Z,8.10
2023-03-27T14:28:59.188Z,8.00
2023-03-27T14:31:06.980Z,8.00
2023-03-27T14:33:11.119Z,8.10
2023-03-27T14:35:33.777Z,8.20
2023-03-27T14:37:36.543Z,8.20
2023-03-27T14:39:38.344Z,8.10
2023-03-27T14:41:55.601Z,7.80
2023-03-27T14:44:03.799Z,7.50
2023-03-27T14:46:07.901Z,7.30
2023-03-27T14:48:17.594Z,7.10
2023-03-27T14:50:19.756Z,6.80
2023-03-27T14:52:33.381Z,6.50
2023-03-27T14:54:48.488Z,6.20
2023-03-27T14:57:09.231Z,5.80
2023-03-27T14:59:19.897Z,5.40
2023-03-27T15:01:21.818Z,5.00
2023-03-27T15:03:26.323Z,4.90
2023-03-27T15:05:28.322Z,4.60
2023-03-27T15:07:34.689Z,4.50
2023-03-27T15:09:37.350Z,4.40
2023-03-27T15:11:40.248Z,4.40
2023-03-27T15:13:42.433Z,4.40
2023-03-27T15:15:47.019Z,4.80
2023-03-27T15:17:55.917Z,5.10
2023-03-27T15:20:10.289Z,5.40
2023-03-27T15:22:34.151Z,5.80
2023-03-27T15:24:51.453Z,6.10
2023-03-27T15:26:55.161Z,6.20
2023-03-27T15:29:07.674Z,6.10
2023-03-27T15:31:10.353Z,6.00
2023-03-27T15:33:17.363Z,5.90
2023-03-27T15:35:23.825Z,5.70
2023-03-27T15:37:28.586Z,5.50
2023-03-27T15:39:31.808Z,5.40
2023-03-27T15:41:33.572Z,5.30
2023-03-27T15:43:35.619Z,5.30
2023-03-27T15:46:26.705Z,5.20
2023-03-27T15:48:40.409Z,5.30
2023-03-27T15:50:53.854Z,5.50
2023-03-27T15:52:58.241Z,5.80
2023-03-27T15:55:01.388Z,6.00
2023-03-27T15:57:11.616Z,6.30
2023-03-27T15:59:16.206Z,6.60
2023-03-27T16:01:22.622Z,6.80
2023-03-27T16:03:27.475Z,7.10
2023-03-27T16:05:29.899Z,7.40
2023-03-27T16:07:43.677Z,7.60
2023-03-27T16:10:05.132Z,7.80
2023-03-27T16:12:10.383Z,8.00
2023-03-27T16:14:22.585Z,8.00
2023-03-27T16:16:30.902Z,8.10
2023-03-27T16:18:40.516Z,8.00
2023-03-27T16:20:42.272Z,7.90
2023-03-27T16:22:44.119Z,8.00
2023-03-27T16:24:45.890Z,8.00
2023-03-27T16:26:48.130Z,8.00
2023-03-27T16:28:50.131Z,8.00
2023-03-27T16:30:51.903Z,8.00
2023-03-27T16:32:53.936Z,7.90
2023-03-27T16:34:56.139Z,7.80
2023-03-27T16:36:57.946Z,7.60
2023-03-27T16:38:59.827Z,7.40
2023-03-27T16:41:01.666Z,7.20
2023-03-27T16:43:03.449Z,7.00
2023-03-27T16:45:06.140Z,6.80
2023-03-27T16:47:07.917Z,6.50
2023-03-27T16:49:12.758Z,6.40
2023-03-27T16:51:14.969Z,6.20
2023-03-27T16:53:16.825Z,6.10
2023-03-27T16:55:19.746Z,6.00
2023-03-27T16:57:21.596Z,5.90
2023-03-27T16:59:23.897Z,5.70
2023-03-27T17:01:25.796Z,5.50
2023-03-27T17:03:27.690Z,5.30
2023-03-27T17:05:34.227Z,5.00
2023-03-27T17:07:36.428Z,4.70
2023-03-27T17:09:38.415Z,4.50
2023-03-27T17:11:40.669Z,4.40
2023-03-27T17:13:43.745Z,4.30
2023-03-27T17:15:49.474Z,4.20
2023-03-27T17:17:52.273Z,4.20
2023-03-27T17:19:54.187Z,4.00
2023-03-27T17:21:56.100Z,3.90
2023-03-27T17:23:58.355Z,3.90
2023-03-27T17:26:01.805Z,3.80
2023-03-27T17:28:04.455Z,3.70
2023-03-27T17:30:07.165Z,3.70
2023-03-27T17:32:09.317Z,3.60
2023-03-27T17:34:11.168Z,3.60
2023-03-27T17:36:16.176Z,3.60
2023-03-27T17:38:22.510Z,3.50
2023-03-27T17:40:24.393Z,3.50
2023-03-27T17:42:26.190Z,3.50
2023-03-27T17:44:28.075Z,3.50
2023-03-27T17:46:29.899Z,3.40
2023-03-27T17:48:36.343Z,3.50
2023-03-27T17:50:39.189Z,3.40
2023-03-27T17:52:40.994Z,3.40
2023-03-27T17:54:42.826Z,3.40
2023-03-27T17:56:44.622Z,3.40
2023-03-27T17:58:48.927Z,3.40
2023-03-27T18:00:51.027Z,3.40
2023-03-27T18:02:52.966Z,3.40
2023-03-27T18:04:54.761Z,3.50
2023-03-27T18:06:56.851Z,3.40
2023-03-27T18:08:58.697Z,3.40
2023-03-27T18:11:00.711Z,3.20
2023-03-27T18:13:02.808Z,3.00
2023-03-27T18:15:05.111Z,2.90
2023-03-27T18:17:06.878Z,2.80
2023-03-27T18:19:09.321Z,2.80
2023-03-27T18:21:11.140Z,2.70
2023-03-27T18:23:12.933Z,2.70
2023-03-27T18:25:14.850Z,2.70
2023-03-27T18:27:17.179Z,2.70
2023-03-27T18:29:21.174Z,2.70
2023-03-27T18:31:23.348Z,2.70
2023-03-27T18:33:25.302Z,2.80
2023-03-27T18:35:27.201Z,2.80
2023-03-27T18:37:28.980Z,2.80
2023-03-27T18:39:31.476Z,2.80
2023-03-27T18:41:35.492Z,2.80
2023-03-27T18:43:37.853Z,2.80
2023-03-27T18:45:39.638Z,2.80
2023-03-27T18:47:43.068Z,2.90
2023-03-27T18:49:46.062Z,2.80
2023-03-27T18:51:48.120Z,2.90
